createdAt,value
2023-04-02T00:00:29.980Z,10.20
2023-04-02T00:03:08.792Z,7.30
2023-04-02T00:05:51.274Z,9.93
2023-04-02T00:08:21.375Z,11.00
2023-04-02T00:10:51.725Z,11.25
2023-04-02T00:13:19.401Z,6.82
2023-04-02T00:15:52.203Z,9.73
2023-04-02T00:18:24.065Z,8.32
2023-04-02T00:21:09.766Z,7.35
2023-04-02T00:23:42.117Z,6.88
2023-04-02T00:26:33.331Z,12.73
2023-04-02T00:29:04.911Z,6.43
2023-04-02T00:31:35.236Z,7.03
2023-04-02T00:34:05.844Z,9.95
2023-04-02T00:36:34.825Z,6.35
2023-04-02T00:39:07.461Z,8.55
2023-04-02T00:41:40.967Z,7.90
2023-04-02T00:44:12.550Z,9.52
2023-04-02T00:46:49.978Z,7.65
2023-04-02T00:49:23.860Z,9.90
2023-04-02T00:51:54.114Z,12.50
2023-04-02T00:54:25.884Z,6.55
2023-04-02T00:57:03.050Z,6.40
2023-04-02T00:59:33.805Z,9.75
2023-04-02T01:02:29.888Z,10.10
2023-04-02T01:05:02.192Z,6.40
2023-04-02T01:07:54.517Z,7.55
2023-04-02T01:10:45.231Z,8.07
2023-04-02T01:13:51.016Z,7.25
2023-04-02T01:16:20.772Z,9.20
2023-04-02T01:19:13.877Z,6.70
2023-04-02T01:24:30.713Z,4.88
2023-04-02T01:26:58.794Z,6.65
2023-04-02T01:29:39.517Z,7.07
2023-04-02T01:32:12.568Z,5.97
2023-04-02T01:34:40.049Z,9.43
2023-04-02T01:37:09.366Z,12.05
2023-04-02T01:39:50.552Z,8.38
2023-04-02T01:42:32.312Z,7.28
2023-04-02T01:45:16.512Z,6.82
2023-04-02T01:47:46.837Z,6.40
2023-04-02T01:50:26.833Z,6.78
2023-04-02T01:52:57.395Z,6.22
2023-04-02T01:55:44.584Z,7.97
2023-04-02T01:58:14.269Z,9.48
2023-04-02T02:00:51.141Z,9.43
2023-04-02T02:03:22.670Z,10.35
2023-04-02T02:05:50.686Z,6.25
2023-04-02T02:08:39.408Z,6.20
2023-04-02T02:11:12.365Z,7.35
2023-04-02T02:13:41.586Z,8.27
2023-04-02T02:16:18.157Z,13.38
2023-04-02T02:18:53.910Z,6.63
2023-04-02T02:21:37.528Z,6.05
2023-04-02T02:24:13.437Z,6.82
2023-04-02T02:26:44.028Z,10.75
2023-04-02T02:29:15.412Z,7.38
2023-04-02T02:31:44.906Z,7.15
2023-04-02T02:34:23.799Z,6.10
2023-04-02T02:37:00.137Z,6.90
2023-04-02T02:39:32.548Z,7.30
2023-04-02T02:42:18.495Z,6.00
2023-04-02T02:44:49.678Z,6.35
2023-04-02T02:47:26.798Z,7.40
2023-04-02T02:49:59.080Z,6.93
2023-04-02T02:52:46.624Z,6.75
2023-04-02T02:55:25.133Z,9.00
2023-04-02T02:58:01.882Z,6.72
2023-04-02T03:00:35.748Z,6.88
2023-04-02T03:03:08.801Z,8.10
2023-04-02T03:05:37.750Z,5.82
2023-04-02T03:08:12.528Z,6.43
2023-04-02T03:11:01.163Z,9.10
2023-04-02T03:13:35.984Z,5.05
2023-04-02T03:16:34.961Z,5.35
2023-04-02T03:19:43.958Z,6.78
2023-04-02T03:22:27.723Z,6.82
2023-04-02T03:25:03.032Z,5.90
2023-04-02T03:27:41.666Z,8.27
2023-04-02T03:30:30.167Z,4.93
2023-04-02T03:33:11.484Z,6.45
2023-04-02T03:35:45.807Z,7.43
2023-04-02T03:38:37.695Z,6.43
2023-04-02T03:41:29.535Z,8.60
2023-04-02T03:44:01.815Z,5.72
2023-04-02T03:46:39.523Z,4.75
2023-04-02T03:49:27.429Z,7.25
2023-04-02T03:52:10.868Z,5.00
2023-04-02T03:54:38.855Z,7.78
2023-04-02T03:57:24.328Z,7.10
2023-04-02T03:59:59.563Z,9.15
2023-04-02T04:02:40.142Z,6.03
2023-04-02T04:05:19.349Z,4.80
2023-04-02T04:07:47.209Z,5.70
2023-04-02T04:10:21.363Z,6.15
2023-04-02T04:13:01.737Z,5.68
2023-04-02T04:15:40.859Z,6.85
2023-04-02T04:18:34.990Z,7.20
2023-04-02T04:21:30.262Z,7.63
2023-04-02T04:24:20.407Z,6.78
2023-04-02T04:27:10.153Z,6.07
2023-04-02T04:29:49.718Z,6.95
2023-04-02T04:32:39.733Z,4.95
2023-04-02T04:35:21.548Z,4.72
2023-04-02T04:37:53.781Z,5.97
2023-04-02T04:40:24.482Z,5.88
2023-04-02T04:42:55.535Z,7.35
2023-04-02T04:45:47.577Z,5.03
2023-04-02T04:48:38.109Z,2.75
2023-04-02T04:51:21.422Z,4.95
2023-04-02T04:53:51.456Z,5.85
2023-04-02T04:56:23.896Z,5.32
2023-04-02T04:59:18.552Z,3.95
2023-04-02T05:02:11.797Z,6.82
2023-04-02T05:04:41.888Z,2.25
2023-04-02T05:07:27.824Z,6.50
2023-04-02T05:10:11.772Z,5.93
2023-04-02T05:12:47.049Z,7.68
2023-04-02T05:15:52.007Z,5.03
2023-04-02T05:18:32.856Z,5.78
2023-04-02T05:21:08.392Z,4.38
2023-04-02T05:23:49.358Z,4.18
2023-04-02T05:26:18.826Z,3.63
2023-04-02T05:29:07.757Z,4.10
2023-04-02T05:31:51.633Z,3.50
2023-04-02T05:34:26.978Z,3.30
2023-04-02T05:36:56.069Z,5.70
2023-04-02T05:39:25.464Z,2.95
2023-04-02T05:42:14.970Z,3.63
2023-04-02T05:45:00.476Z,4.85
2023-04-02T05:47:31.688Z,5.72
2023-04-02T05:50:08.866Z,2.47
2023-04-02T05:53:20.349Z,4.03
2023-04-02T05:56:00.093Z,5.10
2023-04-02T05:58:45.316Z,3.08
2023-04-02T06:01:31.754Z,4.93
2023-04-02T06:04:25.349Z,9.30
2023-04-02T06:07:18.074Z,4.65
2023-04-02T06:10:09.307Z,5.15
2023-04-02T06:12:45.333Z,7.32
2023-04-02T06:15:17.850Z,3.28
2023-04-02T06:18:11.170Z,4.65
2023-04-02T06:20:40.677Z,5.80
2023-04-02T06:23:23.720Z,3.63
2023-04-02T06:25:58.419Z,5.80
2023-04-02T06:28:33.877Z,6.53
2023-04-02T06:31:08.195Z,2.78
2023-04-02T06:33:37.705Z,3.67
2023-04-02T06:36:07.657Z,5.45
2023-04-02T06:38:36.303Z,4.10
2023-04-02T06:43:45.705Z,2.53
2023-04-02T06:46:39.261Z,6.07
2023-04-02T06:49:41.827Z,5.95
2023-04-02T06:52:35.117Z,4.55
2023-04-02T06:55:28.844Z,5.13
2023-04-02T06:57:55.616Z,3.53
2023-04-02T07:00:38.605Z,2.50
2023-04-02T07:03:14.450Z,4.00
2023-04-02T07:05:43.803Z,6.82
2023-04-02T07:08:10.750Z,5.10
2023-04-02T07:10:38.493Z,3.92
2023-04-02T07:13:05.984Z,6.03
2023-04-02T07:15:33.250Z,4.07
2023-04-02T07:18:00.542Z,2.03
2023-04-02T07:20:33.360Z,5.63
2023-04-02T07:23:01.624Z,3.40
2023-04-02T07:25:30.352Z,9.55
2023-04-02T07:30:25.371Z,3.30
2023-04-02T07:32:53.557Z,7.25
2023-04-02T07:35:27.775Z,4.07
2023-04-02T07:37:57.704Z,4.30
2023-04-02T07:40:31.672Z,3.60
2023-04-02T07:42:58.555Z,3.15
2023-04-02T07:45:26.079Z,5.43
2023-04-02T07:47:54.242Z,2.67
2023-04-02T07:50:21.396Z,6.97
2023-04-02T07:55:48.634Z,7.88
2023-04-02T07:58:15.649Z,4.97
2023-04-02T08:00:42.987Z,1.73
2023-04-02T08:03:11.662Z,4.72
2023-04-02T08:08:06.518Z,2.90
2023-04-02T08:10:36.174Z,3.10
2023-04-02T08:13:02.976Z,3.13
2023-04-02T08:15:33.562Z,3.33
2023-04-02T08:18:00.637Z,4.18
2023-04-02T08:20:30.732Z,4.53
2023-04-02T08:23:00.258Z,4.57
2023-04-02T08:25:28.374Z,2.55
2023-04-02T08:27:56.670Z,4.40
2023-04-02T08:30:23.839Z,2.55
2023-04-02T08:32:50.862Z,4.05
2023-04-02T08:35:21.408Z,4.30
2023-04-02T08:37:48.458Z,1.90
2023-04-02T08:40:24.928Z,2.03
2023-04-02T08:43:13.344Z,2.65
2023-04-02T08:45:47.083Z,3.03
2023-04-02T08:48:15.928Z,4.28
2023-04-02T08:50:44.031Z,4.13
2023-04-02T08:53:17.017Z,3.72
2023-04-02T08:56:05.883Z,5.82
2023-04-02T08:58:48.404Z,3.53
2023-04-02T09:02:52.202Z,1.83
2023-04-02T09:04:42.426Z,3.58
2023-04-02T09:07:17.082Z,2.83
2023-04-02T09:09:49.075Z,2.97
2023-04-02T09:12:25.101Z,3.35
2023-04-02T09:15:22.987Z,2.13
2023-04-02T09:17:59.834Z,3.15
2023-04-02T09:20:28.901Z,3.58
2023-04-02T09:22:57.604Z,4.60
2023-04-02T09:25:32.516Z,2.88
2023-04-02T09:28:05.302Z,4.32
2023-04-02T09:30:33.654Z,2.42
2023-04-02T09:33:07.899Z,1.42
2023-04-02T09:35:53.884Z,3.85
2023-04-02T09:38:23.727Z,1.55
2023-04-02T09:41:04.013Z,5.28
2023-04-02T09:43:51.073Z,5.00
2023-04-02T09:46:26.206Z,6.13
2023-04-02T09:49:03.864Z,5.53
2023-04-02T09:51:35.411Z,4.95
2023-04-02T09:54:07.955Z,4.45
2023-04-02T09:56:37.477Z,3.08
2023-04-02T09:59:19.341Z,1.05
2023-04-02T10:01:57.393Z,1.88
2023-04-02T10:04:44.383Z,2.25
2023-04-02T10:07:45.026Z,6.00
2023-04-02T10:10:21.560Z,1.92
2023-04-02T10:13:07.272Z,2.53
2023-04-02T10:16:00.153Z,3.88
2023-04-02T10:21:12.336Z,1.92
2023-04-02T10:23:39.521Z,0.88
2023-04-02T10:26:30.901Z,2.80
2023-04-02T10:29:08.068Z,4.63
2023-04-02T10:31:52.371Z,1.27
2023-04-02T10:34:36.277Z,1.58
2023-04-02T10:37:25.512Z,1.50
2023-04-02T10:40:02.392Z,2.55
2023-04-02T10:42:48.790Z,2.15
2023-04-02T10:45:46.753Z,1.15
2023-04-02T10:48:39.713Z,4.13
2023-04-02T10:51:33.569Z,3.08
2023-04-02T10:54:32.536Z,5.50
2023-04-02T10:57:08.661Z,4.05
2023-04-02T10:59:41.166Z,3.95
2023-04-02T11:02:24.853Z,3.10
2023-04-02T11:04:56.723Z,1.50
2023-04-02T11:07:33.588Z,4.63
2023-04-02T11:10:02.178Z,3.00
2023-04-02T11:12:54.366Z,2.65
2023-04-02T11:15:27.310Z,2.05
2023-04-02T11:17:55.117Z,2.88
2023-04-02T11:20:49.987Z,1.35
2023-04-02T11:23:23.473Z,4.75
2023-04-02T11:25:50.829Z,2.17
2023-04-02T11:28:36.231Z,5.22
2023-04-02T11:31:05.084Z,3.65
2023-04-02T11:33:37.681Z,4.03
2023-04-02T11:36:47.438Z,3.13
2023-04-02T11:39:51.447Z,6.32
2023-04-02T11:42:18.257Z,2.13
2023-04-02T11:44:45.544Z,3.58
2023-04-02T11:47:35.381Z,3.95
2023-04-02T11:50:07.225Z,2.90
2023-04-02T11:52:51.790Z,3.03
2023-04-02T11:55:24.551Z,3.38
2023-04-02T11:58:18.171Z,1.13
2023-04-02T12:01:13.175Z,2.50
2023-04-02T12:04:01.356Z,4.55
2023-04-02T12:06:47.820Z,3.92
2023-04-02T12:09:23.827Z,3.95
2023-04-02T12:11:56.953Z,5.18
2023-04-02T12:14:41.871Z,4.40
2023-04-02T12:17:40.390Z,1.50
2023-04-02T12:20:14.040Z,2.97
2023-04-02T12:22:49.444Z,3.08
2023-04-02T12:25:27.415Z,2.50
2023-04-02T12:28:35.378Z,1.40
2023-04-02T12:31:13.253Z,2.35
2023-04-02T12:33:43.178Z,1.17
2023-04-02T12:36:17.604Z,2.42
2023-04-02T12:38:53.157Z,4.10
2023-04-02T12:41:34.444Z,1.42
2023-04-02T12:44:07.818Z,3.13
2023-04-02T12:46:35.984Z,2.90
2023-04-02T12:49:20.817Z,5.28
2023-04-02T12:51:49.227Z,4.20
2023-04-02T12:56:50.833Z,3.90
2023-04-02T12:59:34.998Z,1.58
2023-04-02T13:02:17.586Z,2.80
2023-04-02T13:05:01.655Z,1.58
2023-04-02T13:07:34.481Z,2.90
2023-04-02T13:10:05.044Z,0.80
2023-04-02T13:12:38.292Z,2.42
2023-04-02T13:15:28.691Z,2.45
2023-04-02T13:18:21.008Z,2.00
2023-04-02T13:21:03.569Z,4.53
2023-04-02T13:23:30.571Z,3.53
2023-04-02T13:26:03.654Z,2.78
2023-04-02T13:28:30.843Z,2.38
2023-04-02T13:30:57.796Z,2.03
2023-04-02T13:33:25.365Z,1.55
2023-04-02T13:35:54.353Z,1.08
2023-04-02T13:38:21.774Z,2.08
2023-04-02T13:43:21.318Z,2.72
2023-04-02T13:45:53.425Z,3.00
2023-04-02T13:48:24.614Z,2.42
2023-04-02T13:50:53.389Z,4.10
2023-04-02T13:53:30.940Z,5.97
2023-04-02T13:55:58.934Z,2.28
2023-04-02T13:58:25.731Z,3.88
2023-04-02T14:00:52.913Z,0.93
2023-04-02T14:03:22.578Z,2.65
2023-04-02T14:06:08.634Z,3.75
2023-04-02T14:09:04.826Z,3.13
2023-04-02T14:11:58.149Z,3.38
2023-04-02T14:14:33.975Z,2.03
2023-04-02T14:17:19.352Z,3.75
2023-04-02T14:20:04.664Z,3.67
2023-04-02T14:22:39.340Z,1.75
2023-04-02T14:25:41.476Z,1.73
2023-04-02T14:28:28.555Z,3.45
2023-04-02T14:31:30.917Z,2.47
2023-04-02T14:34:12.086Z,5.35
2023-04-02T14:36:45.149Z,1.88
2023-04-02T14:39:50.824Z,1.95
2023-04-02T14:42:27.808Z,2.25
2023-04-02T14:45:13.230Z,1.73
2023-04-02T14:47:49.372Z,2.30
2023-04-02T14:50:33.316Z,3.40
2023-04-02T14:53:09.468Z,3.20
2023-04-02T14:55:43.429Z,2.22
2023-04-02T14:58:20.192Z,2.95
2023-04-02T15:00:58.366Z,2.58
2023-04-02T15:03:31.023Z,1.17
2023-04-02T15:06:02.950Z,2.38
2023-04-02T15:09:06.262Z,1.77
2023-04-02T15:11:45.028Z,1.77
2023-04-02T15:14:19.876Z,1.55
2023-04-02T15:16:47.144Z,4.75
2023-04-02T15:19:17.222Z,5.45
2023-04-02T15:22:08.185Z,1.30
2023-04-02T15:24:48.282Z,1.10
2023-04-02T15:27:38.684Z,1.75
2023-04-02T15:30:29.386Z,2.50
2023-04-02T15:33:18.163Z,2.38
2023-04-02T15:36:00.823Z,2.80
2023-04-02T15:38:48.360Z,2.92
2023-04-02T15:41:27.519Z,1.50
2023-04-02T15:44:14.686Z,5.90
2023-04-02T15:47:11.010Z,2.78
2023-04-02T15:49:56.918Z,4.47
2023-04-02T15:52:33.397Z,3.20
2023-04-02T15:55:27.100Z,0.95
2023-04-02T15:58:15.865Z,2.00
2023-04-02T16:00:56.201Z,1.25
2023-04-02T16:04:02.606Z,2.17
2023-04-02T16:07:00.616Z,1.13
2023-04-02T16:09:31.511Z,2.30
2023-04-02T16:12:19.697Z,2.45
2023-04-02T16:14:49.002Z,1.23
2023-04-02T16:17:25.015Z,1.05
2023-04-02T16:20:06.386Z,1.38
2023-04-02T16:22:36.236Z,2.83
2023-04-02T16:25:19.796Z,2.42
2023-04-02T16:28:14.671Z,2.03
2023-04-02T16:30:45.132Z,1.58
2023-04-02T16:33:34.568Z,3.33
2023-04-02T16:36:27.174Z,3.65
2023-04-02T16:39:16.204Z,2.85
2023-04-02T16:42:11.006Z,2.28
2023-04-02T16:45:16.915Z,1.63
2023-04-02T16:48:25.240Z,2.38
2023-04-02T16:51:16.776Z,2.80
2023-04-02T16:54:00.355Z,1.70
2023-04-02T16:56:57.797Z,2.65
2023-04-02T16:59:46.598Z,4.22
2023-04-02T17:02:35.019Z,2.45
2023-04-02T17:05:31.319Z,2.47
2023-04-02T17:08:07.413Z,2.20
2023-04-02T17:11:02.729Z,1.55
2023-04-02T17:13:56.029Z,3.45
2023-04-02T17:16:51.653Z,2.58
2023-04-02T17:19:20.919Z,0.68
2023-04-02T17:21:52.928Z,2.97
2023-04-02T17:24:48.696Z,8.32
2023-04-02T17:27:30.090Z,2.65
2023-04-02T17:30:41.570Z,2.67
2023-04-02T17:33:16.147Z,3.53
2023-04-02T17:36:17.163Z,1.48
2023-04-02T17:38:55.416Z,2.42
2023-04-02T17:41:36.267Z,3.33
2023-04-02T17:44:43.521Z,1.88
2023-04-02T17:47:35.820Z,3.15
2023-04-02T17:50:35.863Z,1.55
2023-04-02T17:53:24.755Z,1.10
2023-04-02T17:56:27.430Z,1.60
2023-04-02T17:59:01.533Z,2.30
2023-04-02T18:01:42.680Z,3.22
2023-04-02T18:04:23.432Z,4.55
2023-04-02T18:07:02.529Z,1.00
2023-04-02T18:09:50.921Z,3.08
2023-04-02T18:12:32.147Z,0.85
2023-04-02T18:15:37.590Z,3.38
2023-04-02T18:18:23.458Z,2.63
2023-04-02T18:21:18.204Z,3.78
2023-04-02T18:23:54.317Z,3.00
2023-04-02T18:26:42.977Z,0.77
2023-04-02T18:29:32.456Z,1.15
2023-04-02T18:32:26.003Z,2.00
2023-04-02T18:35:20.299Z,3.33
2023-04-02T18:38:04.007Z,2.53
2023-04-02T18:40:34.855Z,1.58
2023-04-02T18:43:16.883Z,2.00
2023-04-02T18:46:13.774Z,0.93
2023-04-02T18:48:54.707Z,1.08
2023-04-02T18:51:24.983Z,2.55
2023-04-02T18:54:02.833Z,3.08
2023-04-02T18:56:33.280Z,6.75
2023-04-02T18:59:17.081Z,0.95
2023-04-02T19:01:52.352Z,1.75
2023-04-02T19:04:32.190Z,0.88
2023-04-02T19:07:17.147Z,1.13
2023-04-02T19:09:48.393Z,2.40
2023-04-02T19:12:20.805Z,3.00
2023-04-02T19:14:50.942Z,2.75
2023-04-02T19:17:37.492Z,2.63
2023-04-02T19:20:30.081Z,1.95
2023-04-02T19:23:31.459Z,3.75
2023-04-02T19:26:07.210Z,2.42
2023-04-02T19:28:59.450Z,0.88
2023-04-02T19:32:19.630Z,1.70
2023-04-02T19:35:03.898Z,2.22
2023-04-02T19:37:41.426Z,2.65
2023-04-02T19:40:36.212Z,5.88
2023-04-02T19:43:05.478Z,6.72
2023-04-02T19:45:40.834Z,1.50
2023-04-02T19:48:26.854Z,2.22
2023-04-02T19:50:55.046Z,4.90
2023-04-02T19:53:22.278Z,1.60
2023-04-02T19:55:51.092Z,2.70
2023-04-02T19:58:24.191Z,1.70
2023-04-02T20:00:51.872Z,2.53
2023-04-02T20:03:18.465Z,1.55
2023-04-02T20:05:45.841Z,2.80
2023-04-02T20:08:13.246Z,2.95
2023-04-02T20:10:40.342Z,2.25
2023-04-02T20:13:07.022Z,2.40
2023-04-02T20:15:34.327Z,1.75
2023-04-02T20:18:04.719Z,3.80
2023-04-02T20:20:31.501Z,3.15
2023-04-02T20:22:58.377Z,3.42
2023-04-02T20:25:25.493Z,1.48
2023-04-02T20:27:52.098Z,3.63
2023-04-02T20:30:18.776Z,2.05
2023-04-02T20:32:45.406Z,1.38
2023-04-02T20:35:12.488Z,4.18
2023-04-02T20:37:42.364Z,3.08
2023-04-02T20:40:10.231Z,2.35
2023-04-02T20:42:37.200Z,2.75
2023-04-02T20:45:06.167Z,2.58
2023-04-02T20:47:33.297Z,3.67
2023-04-02T20:50:01.306Z,1.05
2023-04-02T20:52:30.415Z,1.50
2023-04-02T20:54:57.411Z,1.92
2023-04-02T20:57:27.534Z,1.27
2023-04-02T20:59:54.658Z,1.63
2023-04-02T21:02:21.597Z,4.10
2023-04-02T21:04:48.139Z,1.65
2023-04-02T21:07:15.118Z,2.75
2023-04-02T21:09:41.645Z,0.55
2023-04-02T21:12:08.155Z,1.13
2023-04-02T21:14:38.417Z,1.85
2023-04-02T21:17:06.958Z,4.10
2023-04-02T21:19:34.781Z,3.05
2023-04-02T21:22:01.609Z,1.35
2023-04-02T21:24:28.082Z,1.45
2023-04-02T21:26:54.881Z,1.38
2023-04-02T21:29:21.413Z,4.60
2023-04-02T21:31:48.260Z,2.90
2023-04-02T21:34:17.266Z,2.08
2023-04-02T21:36:46.749Z,1.55
2023-04-02T21:39:19.141Z,0.50
2023-04-02T21:41:47.474Z,5.15
2023-04-02T21:46:43.628Z,1.33
2023-04-02T21:49:16.673Z,1.20
2023-04-02T21:51:46.435Z,3.60
2023-04-02T21:54:13.831Z,2.95
2023-04-02T21:56:43.111Z,2.10
2023-04-02T21:59:11.453Z,1.05
2023-04-02T22:01:41.198Z,1.08
2023-04-02T22:04:09.621Z,0.95
2023-04-02T22:06:39.316Z,2.38
2023-04-02T22:09:10.051Z,2.45
2023-04-02T22:11:39.820Z,2.33
2023-04-02T22:14:06.831Z,1.45
2023-04-02T22:16:35.379Z,1.63
2023-04-02T22:21:35.495Z,1.42
2023-04-02T22:24:04.453Z,1.40
2023-04-02T22:26:32.017Z,3.10
2023-04-02T22:28:59.155Z,1.50
2023-04-02T22:31:29.092Z,2.08
2023-04-02T22:33:56.740Z,2.50
2023-04-02T22:36:25.899Z,2.60
2023-04-02T22:38:52.938Z,2.38
2023-04-02T22:41:27.680Z,2.08
2023-04-02T22:43:56.615Z,1.33
2023-04-02T22:46:23.743Z,1.40
2023-04-02T22:48:50.747Z,3.92
2023-04-02T22:51:20.687Z,1.30
2023-04-02T22:53:49.289Z,2.80
2023-04-02T22:56:22.020Z,2.80
2023-04-02T22:58:49.406Z,1.35
2023-04-02T23:01:18.954Z,2.35
2023-04-02T23:03:45.755Z,1.42
2023-04-02T23:06:15.576Z,1.77
2023-04-02T23:08:42.543Z,1.88
2023-04-02T23:11:13.687Z,2.70
2023-04-02T23:13:41.115Z,3.20
2023-04-02T23:16:11.861Z,2.05
2023-04-02T23:18:39.656Z,2.30
2023-04-02T23:21:07.426Z,1.95
2023-04-02T23:23:36.025Z,2.88
2023-04-02T23:26:12.649Z,1.50
2023-04-02T23:28:40.641Z,1.95
2023-04-02T23:31:09.851Z,3.97
2023-04-02T23:33:36.367Z,1.75
2023-04-02T23:36:11.264Z,4.13
2023-04-02T23:38:37.837Z,2.55
2023-04-02T23:41:04.843Z,2.40
2023-04-02T23:43:31.734Z,3.80
2023-04-02T23:45:59.048Z,1.48
2023-04-02T23:48:25.574Z,2.45
2023-04-02T23:50:52.532Z,1.55
2023-04-02T23:53:19.149Z,2.47
2023-04-02T23:55:46.170Z,2.17
2023-04-02T23:58:12.781Z,3.47
